Wasco, Illinois
Current Conditions -  °F | °C
As of 9:52 PM on Saturday 20 Dec 2014 (Local Time) from KDPA Reporting Station
Overcast Overcast  
Wind Chill: 26°   Ceiling: 5500
Heat Index: 32°   Visibility: 8mi
Dew Point: 26°   Wind: 7mph
Humidity: 79%   Direction: 180°S
Pressure: 30.24"   Gusts: NA
Location:  41.94°N, 88.4°W
Report Text: KDPA 210352Z 18006KT 8SM FEW033 SCT045 OVC055 00/M03 A3024 RMK AO2 SLP247 T00001033
Loading
Personal Weather Stations






























Interactive Weather Map New forecast layout! Learn more

10-Day Weather Forecast

Advertisements
Track Severe Weather on mobile